sensor_id;sensor_type;location;lat;lon;timestamp;temperature;humidity
83327;DHT22;73250;55.594;13.020;2024-01-25T00:02:06;21.90;40.60
83327;DHT22;73250;55.594;13.020;2024-01-25T00:04:32;21.90;40.60
83327;DHT22;73250;55.594;13.020;2024-01-25T00:07:00;21.90;40.60
83327;DHT22;73250;55.594;13.020;2024-01-25T00:09:27;21.90;40.60
83327;DHT22;73250;55.594;13.020;2024-01-25T00:11:54;21.90;40.60
83327;DHT22;73250;55.594;13.020;2024-01-25T00:14:20;21.90;40.70
83327;DHT22;73250;55.594;13.020;2024-01-25T00:16:47;21.90;40.70
83327;DHT22;73250;55.594;13.020;2024-01-25T00:19:13;21.90;40.70
83327;DHT22;73250;55.594;13.020;2024-01-25T00:21:42;21.90;40.70
83327;DHT22;73250;55.594;13.020;2024-01-25T00:24:12;21.90;40.60
83327;DHT22;73250;55.594;13.020;2024-01-25T00:26:39;21.90;40.60
83327;DHT22;73250;55.594;13.020;2024-01-25T00:29:06;21.80;40.60
83327;DHT22;73250;55.594;13.020;2024-01-25T00:31:32;21.80;40.60
83327;DHT22;73250;55.594;13.020;2024-01-25T00:34:00;21.80;40.60
83327;DHT22;73250;55.594;13.020;2024-01-25T00:36:27;21.80;40.60
83327;DHT22;73250;55.594;13.020;2024-01-25T00:38:54;21.80;40.60
83327;DHT22;73250;55.594;13.020;2024-01-25T00:41:23;21.80;40.60
83327;DHT22;73250;55.594;13.020;2024-01-25T00:43:50;21.80;40.60
83327;DHT22;73250;55.594;13.020;2024-01-25T00:46:17;21.80;40.70
83327;DHT22;73250;55.594;13.020;2024-01-25T00:48:44;21.80;40.70
83327;DHT22;73250;55.594;13.020;2024-01-25T00:51:15;21.80;40.60
83327;DHT22;73250;55.594;13.020;2024-01-25T00:53:42;21.80;40.70
83327;DHT22;73250;55.594;13.020;2024-01-25T00:56:11;21.80;40.70
83327;DHT22;73250;55.594;13.020;2024-01-25T00:58:39;21.80;40.70
83327;DHT22;73250;55.594;13.020;2024-01-25T01:01:07;21.80;40.70
83327;DHT22;73250;55.594;13.020;2024-01-25T01:03:33;21.80;41.00
83327;DHT22;73250;55.594;13.020;2024-01-25T01:06:00;21.80;40.70
83327;DHT22;73250;55.594;13.020;2024-01-25T01:08:28;21.80;40.70
83327;DHT22;73250;55.594;13.020;2024-01-25T01:10:54;21.80;40.80
83327;DHT22;73250;55.594;13.020;2024-01-25T01:13:21;21.80;40.80
83327;DHT22;73250;55.594;13.020;2024-01-25T01:15:49;21.80;40.70
83327;DHT22;73250;55.594;13.020;2024-01-25T01:18:16;21.80;40.70
83327;DHT22;73250;55.594;13.020;2024-01-25T01:20:42;21.80;40.80
83327;DHT22;73250;55.594;13.020;2024-01-25T01:23:09;21.80;40.80
83327;DHT22;73250;55.594;13.020;2024-01-25T01:25:35;21.80;40.80
83327;DHT22;73250;55.594;13.020;2024-01-25T01:28:02;21.80;40.80
83327;DHT22;73250;55.594;13.020;2024-01-25T01:30:29;21.80;40.80
83327;DHT22;73250;55.594;13.020;2024-01-25T01:32:57;21.80;40.90
83327;DHT22;73250;55.594;13.020;2024-01-25T01:35:24;21.80;40.90
83327;DHT22;73250;55.594;13.020;2024-01-25T01:37:50;21.80;40.90
83327;DHT22;73250;55.594;13.020;2024-01-25T01:40:17;21.80;40.80
83327;DHT22;73250;55.594;13.020;2024-01-25T01:42:44;21.70;40.80
83327;DHT22;73250;55.594;13.020;2024-01-25T01:45:11;21.70;40.80
83327;DHT22;73250;55.594;13.020;2024-01-25T01:47:38;21.80;40.90
83327;DHT22;73250;55.594;13.020;2024-01-25T01:50:07;21.70;40.90
83327;DHT22;73250;55.594;13.020;2024-01-25T01:52:34;21.80;40.80
83327;DHT22;73250;55.594;13.020;2024-01-25T01:55:01;21.70;40.90
83327;DHT22;73250;55.594;13.020;2024-01-25T01:57:28;21.70;40.90
83327;DHT22;73250;55.594;13.020;2024-01-25T01:59:55;21.70;40.80
83327;DHT22;73250;55.594;13.020;2024-01-25T02:02:23;21.70;40.90
83327;DHT22;73250;55.594;13.020;2024-01-25T02:04:50;21.70;40.90
83327;DHT22;73250;55.594;13.020;2024-01-25T02:07:18;21.70;40.80
83327;DHT22;73250;55.594;13.020;2024-01-25T02:09:44;21.70;40.80
83327;DHT22;73250;55.594;13.020;2024-01-25T02:12:14;21.70;40.90
83327;DHT22;73250;55.594;13.020;2024-01-25T02:14:41;21.70;40.90
83327;DHT22;73250;55.594;13.020;2024-01-25T02:17:08;21.70;40.90
83327;DHT22;73250;55.594;13.020;2024-01-25T02:19:35;21.70;40.90
83327;DHT22;73250;55.594;13.020;2024-01-25T02:22:04;21.70;40.90
83327;DHT22;73250;55.594;13.020;2024-01-25T02:24:32;21.70;40.80
83327;DHT22;73250;55.594;13.020;2024-01-25T02:26:59;21.70;40.70
83327;DHT22;73250;55.594;13.020;2024-01-25T02:29:25;21.70;40.80
83327;DHT22;73250;55.594;13.020;2024-01-25T02:31:52;21.70;40.90
83327;DHT22;73250;55.594;13.020;2024-01-25T02:34:19;21.70;40.90
83327;DHT22;73250;55.594;13.020;2024-01-25T02:36:45;21.70;40.80
83327;DHT22;73250;55.594;13.020;2024-01-25T02:39:12;21.70;40.90
83327;DHT22;73250;55.594;13.020;2024-01-25T02:41:40;21.70;40.80
83327;DHT22;73250;55.594;13.020;2024-01-25T02:44:06;21.70;40.80
83327;DHT22;73250;55.594;13.020;2024-01-25T02:46:33;21.70;40.90
83327;DHT22;73250;55.594;13.020;2024-01-25T02:49:00;21.70;40.90
83327;DHT22;73250;55.594;13.020;2024-01-25T02:51:26;21.70;40.90
83327;DHT22;73250;55.594;13.020;2024-01-25T02:53:53;21.70;40.90
83327;DHT22;73250;55.594;13.020;2024-01-25T02:56:19;21.70;40.80
83327;DHT22;73250;55.594;13.020;2024-01-25T02:58:47;21.70;40.90
83327;DHT22;73250;55.594;13.020;2024-01-25T03:01:14;21.70;40.90
83327;DHT22;73250;55.594;13.020;2024-01-25T03:03:41;21.70;40.90
83327;DHT22;73250;55.594;13.020;2024-01-25T03:06:07;21.70;40.90
83327;DHT22;73250;55.594;13.020;2024-01-25T03:08:34;21.70;40.90
83327;DHT22;73250;55.594;13.020;2024-01-25T03:11:01;21.70;40.90
83327;DHT22;73250;55.594;13.020;2024-01-25T03:13:29;21.70;40.90
83327;DHT22;73250;55.594;13.020;2024-01-25T03:15:57;21.70;40.80
83327;DHT22;73250;55.594;13.020;2024-01-25T03:18:23;21.70;40.80
83327;DHT22;73250;55.594;13.020;2024-01-25T03:20:50;21.70;40.90
83327;DHT22;73250;55.594;13.020;2024-01-25T03:23:17;21.70;40.80
83327;DHT22;73250;55.594;13.020;2024-01-25T03:25:44;21.70;40.80
83327;DHT22;73250;55.594;13.020;2024-01-25T03:28:10;21.70;40.80
83327;DHT22;73250;55.594;13.020;2024-01-25T03:30:39;21.70;40.80
83327;DHT22;73250;55.594;13.020;2024-01-25T03:33:07;21.70;40.80
83327;DHT22;73250;55.594;13.020;2024-01-25T03:35:33;21.70;40.80
83327;DHT22;73250;55.594;13.020;2024-01-25T03:38:00;21.70;40.80
83327;DHT22;73250;55.594;13.020;2024-01-25T03:40:27;21.70;40.70
83327;DHT22;73250;55.594;13.020;2024-01-25T03:42:53;21.60;40.70
83327;DHT22;73250;55.594;13.020;2024-01-25T03:45:20;21.60;40.70
83327;DHT22;73250;55.594;13.020;2024-01-25T03:47:46;21.60;40.60
83327;DHT22;73250;55.594;13.020;2024-01-25T03:50:15;21.60;40.70
83327;DHT22;73250;55.594;13.020;2024-01-25T03:52:41;21.60;40.60
83327;DHT22;73250;55.594;13.020;2024-01-25T03:55:08;21.60;40.60
83327;DHT22;73250;55.594;13.020;2024-01-25T03:57:35;21.60;40.60
83327;DHT22;73250;55.594;13.020;2024-01-25T04:00:02;21.60;40.60
83327;DHT22;73250;55.594;13.020;2024-01-25T04:02:29;21.60;40.60
83327;DHT22;73250;55.594;13.020;2024-01-25T04:04:56;21.60;40.60
83327;DHT22;73250;55.594;13.020;2024-01-25T04:07:24;21.60;40.60
83327;DHT22;73250;55.594;13.020;2024-01-25T04:09:51;21.60;41.20
83327;DHT22;73250;55.594;13.020;2024-01-25T04:12:17;21.60;40.60
83327;DHT22;73250;55.594;13.020;2024-01-25T04:14:44;21.60;40.60
83327;DHT22;73250;55.594;13.020;2024-01-25T04:17:11;21.60;40.60
83327;DHT22;73250;55.594;13.020;2024-01-25T04:19:37;21.60;40.50
83327;DHT22;73250;55.594;13.020;2024-01-25T04:22:04;21.60;40.50
83327;DHT22;73250;55.594;13.020;2024-01-25T04:24:32;21.60;40.60
83327;DHT22;73250;55.594;13.020;2024-01-25T04:26:59;21.60;40.50
83327;DHT22;73250;55.594;13.020;2024-01-25T04:29:25;21.60;40.50
83327;DHT22;73250;55.594;13.020;2024-01-25T04:31:52;21.60;40.50
83327;DHT22;73250;55.594;13.020;2024-01-25T04:34:19;21.60;40.50
83327;DHT22;73250;55.594;13.020;2024-01-25T04:36:45;21.60;40.50
83327;DHT22;73250;55.594;13.020;2024-01-25T04:39:12;21.60;40.50
83327;DHT22;73250;55.594;13.020;2024-01-25T04:41:40;21.60;40.50
83327;DHT22;73250;55.594;13.020;2024-01-25T04:44:07;21.60;40.50
83327;DHT22;73250;55.594;13.020;2024-01-25T04:46:34;21.60;40.50
83327;DHT22;73250;55.594;13.020;2024-01-25T04:49:02;21.60;40.50
83327;DHT22;73250;55.594;13.020;2024-01-25T04:51:29;21.60;40.50
83327;DHT22;73250;55.594;13.020;2024-01-25T04:53:56;21.60;40.50
83327;DHT22;73250;55.594;13.020;2024-01-25T04:56:22;21.60;40.50
83327;DHT22;73250;55.594;13.020;2024-01-25T04:58:50;21.60;40.60
83327;DHT22;73250;55.594;13.020;2024-01-25T05:01:17;21.60;40.50
83327;DHT22;73250;55.594;13.020;2024-01-25T05:03:44;21.60;40.50
83327;DHT22;73250;55.594;13.020;2024-01-25T05:06:10;21.50;40.50
83327;DHT22;73250;55.594;13.020;2024-01-25T05:08:37;21.50;40.40
83327;DHT22;73250;55.594;13.020;2024-01-25T05:11:04;21.50;40.40
83327;DHT22;73250;55.594;13.020;2024-01-25T05:13:31;21.50;40.40
83327;DHT22;73250;55.594;13.020;2024-01-25T05:15:59;21.60;40.50
83327;DHT22;73250;55.594;13.020;2024-01-25T05:18:25;21.50;40.40
83327;DHT22;73250;55.594;13.020;2024-01-25T05:20:52;21.50;40.40
83327;DHT22;73250;55.594;13.020;2024-01-25T05:23:19;21.50;40.40
83327;DHT22;73250;55.594;13.020;2024-01-25T05:25:45;21.50;40.40
83327;DHT22;73250;55.594;13.020;2024-01-25T05:28:12;21.50;40.40
83327;DHT22;73250;55.594;13.020;2024-01-25T05:30:39;21.50;40.40
83327;DHT22;73250;55.594;13.020;2024-01-25T05:33:07;21.50;40.40
83327;DHT22;73250;55.594;13.020;2024-01-25T05:35:33;21.50;40.40
83327;DHT22;73250;55.594;13.020;2024-01-25T05:38:00;21.50;40.40
83327;DHT22;73250;55.594;13.020;2024-01-25T05:40:27;21.50;40.40
83327;DHT22;73250;55.594;13.020;2024-01-25T05:42:53;21.50;40.40
83327;DHT22;73250;55.594;13.020;2024-01-25T05:45:19;21.50;40.40
83327;DHT22;73250;55.594;13.020;2024-01-25T05:47:47;21.50;40.30
83327;DHT22;73250;55.594;13.020;2024-01-25T05:50:15;21.50;40.40
83327;DHT22;73250;55.594;13.020;2024-01-25T05:52:42;21.50;40.30
83327;DHT22;73250;55.594;13.020;2024-01-25T05:55:09;21.50;40.30
83327;DHT22;73250;55.594;13.020;2024-01-25T05:57:36;21.50;40.30
83327;DHT22;73250;55.594;13.020;2024-01-25T06:00:04;21.50;40.30
83327;DHT22;73250;55.594;13.020;2024-01-25T06:02:31;21.50;40.30
83327;DHT22;73250;55.594;13.020;2024-01-25T06:04:58;21.50;40.30
83327;DHT22;73250;55.594;13.020;2024-01-25T06:07:26;21.50;40.30
83327;DHT22;73250;55.594;13.020;2024-01-25T06:09:53;21.50;40.30
83327;DHT22;73250;55.594;13.020;2024-01-25T06:12:20;21.50;40.30
83327;DHT22;73250;55.594;13.020;2024-01-25T06:14:46;21.50;40.30
83327;DHT22;73250;55.594;13.020;2024-01-25T06:17:14;21.50;40.30
83327;DHT22;73250;55.594;13.020;2024-01-25T06:19:40;21.50;40.30
83327;DHT22;73250;55.594;13.020;2024-01-25T06:22:07;21.50;40.30
83327;DHT22;73250;55.594;13.020;2024-01-25T06:24:35;21.50;40.30
83327;DHT22;73250;55.594;13.020;2024-01-25T06:27:02;21.50;40.30
83327;DHT22;73250;55.594;13.020;2024-01-25T06:29:28;21.50;40.30
83327;DHT22;73250;55.594;13.020;2024-01-25T06:31:55;21.50;40.30
83327;DHT22;73250;55.594;13.020;2024-01-25T06:34:22;21.50;40.30
83327;DHT22;73250;55.594;13.020;2024-01-25T06:36:48;21.50;40.30
83327;DHT22;73250;55.594;13.020;2024-01-25T06:39:15;21.50;40.30
83327;DHT22;73250;55.594;13.020;2024-01-25T06:41:43;21.40;40.20
83327;DHT22;73250;55.594;13.020;2024-01-25T06:44:10;21.50;40.30
83327;DHT22;73250;55.594;13.020;2024-01-25T06:46:36;21.40;40.20
83327;DHT22;73250;55.594;13.020;2024-01-25T06:49:03;21.40;40.20
83327;DHT22;73250;55.594;13.020;2024-01-25T06:51:30;21.40;40.20
83327;DHT22;73250;55.594;13.020;2024-01-25T06:53:57;21.40;40.20
83327;DHT22;73250;55.594;13.020;2024-01-25T06:56:24;21.40;40.20
83327;DHT22;73250;55.594;13.020;2024-01-25T06:58:52;21.40;40.20
83327;DHT22;73250;55.594;13.020;2024-01-25T07:01:20;21.40;40.20
83327;DHT22;73250;55.594;13.020;2024-01-25T07:03:47;21.40;40.10
83327;DHT22;73250;55.594;13.020;2024-01-25T07:06:15;21.40;40.10
83327;DHT22;73250;55.594;13.020;2024-01-25T07:08:42;21.40;40.10
83327;DHT22;73250;55.594;13.020;2024-01-25T07:11:09;21.40;40.10
83327;DHT22;73250;55.594;13.020;2024-01-25T07:13:35;21.40;40.10
83327;DHT22;73250;55.594;13.020;2024-01-25T07:16:04;21.40;40.10
83327;DHT22;73250;55.594;13.020;2024-01-25T07:18:31;21.40;40.10
83327;DHT22;73250;55.594;13.020;2024-01-25T07:20:57;21.40;40.10
83327;DHT22;73250;55.594;13.020;2024-01-25T07:23:24;21.40;40.10
83327;DHT22;73250;55.594;13.020;2024-01-25T07:25:52;21.40;40.10
83327;DHT22;73250;55.594;13.020;2024-01-25T07:28:19;21.40;40.10
83327;DHT22;73250;55.594;13.020;2024-01-25T07:30:46;21.40;40.10
83327;DHT22;73250;55.594;13.020;2024-01-25T07:33:14;21.40;40.00
83327;DHT22;73250;55.594;13.020;2024-01-25T07:35:41;21.40;40.00
83327;DHT22;73250;55.594;13.020;2024-01-25T07:38:11;21.40;40.10
83327;DHT22;73250;55.594;13.020;2024-01-25T07:40:37;21.40;40.10
83327;DHT22;73250;55.594;13.020;2024-01-25T07:43:04;21.40;40.10
83327;DHT22;73250;55.594;13.020;2024-01-25T07:45:31;21.40;40.20
83327;DHT22;73250;55.594;13.020;2024-01-25T07:47:57;21.40;40.10
83327;DHT22;73250;55.594;13.020;2024-01-25T07:50:25;21.40;40.10
83327;DHT22;73250;55.594;13.020;2024-01-25T07:52:54;21.40;40.10
83327;DHT22;73250;55.594;13.020;2024-01-25T07:55:20;21.40;40.10
83327;DHT22;73250;55.594;13.020;2024-01-25T07:57:47;21.40;40.10
83327;DHT22;73250;55.594;13.020;2024-01-25T08:00:14;21.40;40.10
83327;DHT22;73250;55.594;13.020;2024-01-25T08:02:41;21.40;40.10
83327;DHT22;73250;55.594;13.020;2024-01-25T08:05:10;21.40;40.00
83327;DHT22;73250;55.594;13.020;2024-01-25T08:07:38;21.40;39.90
83327;DHT22;73250;55.594;13.020;2024-01-25T08:10:06;21.40;39.80
83327;DHT22;73250;55.594;13.020;2024-01-25T08:12:33;21.40;39.90
83327;DHT22;73250;55.594;13.020;2024-01-25T08:15:00;21.40;39.90
83327;DHT22;73250;55.594;13.020;2024-01-25T08:17:27;21.40;39.90
83327;DHT22;73250;55.594;13.020;2024-01-25T08:19:54;21.40;40.00
83327;DHT22;73250;55.594;13.020;2024-01-25T08:22:21;21.40;40.10
83327;DHT22;73250;55.594;13.020;2024-01-25T08:24:49;21.40;40.00
83327;DHT22;73250;55.594;13.020;2024-01-25T08:27:16;21.50;40.30
83327;DHT22;73250;55.594;13.020;2024-01-25T08:29:43;21.50;40.30
83327;DHT22;73250;55.594;13.020;2024-01-25T08:32:09;21.50;40.30
83327;DHT22;73250;55.594;13.020;2024-01-25T08:34:36;21.50;40.30
83327;DHT22;73250;55.594;13.020;2024-01-25T08:37:03;21.50;40.30
83327;DHT22;73250;55.594;13.020;2024-01-25T08:39:29;21.50;40.30
83327;DHT22;73250;55.594;13.020;2024-01-25T08:41:57;21.50;40.40
83327;DHT22;73250;55.594;13.020;2024-01-25T08:44:27;21.50;40.40
83327;DHT22;73250;55.594;13.020;2024-01-25T08:46:53;21.50;40.40
83327;DHT22;73250;55.594;13.020;2024-01-25T08:49:20;21.60;40.40
83327;DHT22;73250;55.594;13.020;2024-01-25T08:51:47;21.60;40.60
83327;DHT22;73250;55.594;13.020;2024-01-25T08:54:14;21.60;40.50
83327;DHT22;73250;55.594;13.020;2024-01-25T08:56:40;21.60;40.50
83327;DHT22;73250;55.594;13.020;2024-01-25T08:59:08;21.60;40.50
83327;DHT22;73250;55.594;13.020;2024-01-25T09:01:35;21.60;40.50
83327;DHT22;73250;55.594;13.020;2024-01-25T09:04:02;21.60;40.70
83327;DHT22;73250;55.594;13.020;2024-01-25T09:06:29;21.60;40.50
83327;DHT22;73250;55.594;13.020;2024-01-25T09:08:56;21.60;40.70
83327;DHT22;73250;55.594;13.020;2024-01-25T09:11:22;21.60;40.60
83327;DHT22;73250;55.594;13.020;2024-01-25T09:13:49;21.60;40.60
83327;DHT22;73250;55.594;13.020;2024-01-25T09:16:17;21.60;40.50
83327;DHT22;73250;55.594;13.020;2024-01-25T09:18:44;21.60;40.50
83327;DHT22;73250;55.594;13.020;2024-01-25T09:21:11;21.70;40.60
83327;DHT22;73250;55.594;13.020;2024-01-25T09:23:37;21.70;40.70
83327;DHT22;73250;55.594;13.020;2024-01-25T09:26:04;21.70;40.80
83327;DHT22;73250;55.594;13.020;2024-01-25T09:28:30;21.70;40.90
83327;DHT22;73250;55.594;13.020;2024-01-25T09:30:57;21.70;40.80
83327;DHT22;73250;55.594;13.020;2024-01-25T09:33:25;21.70;40.80
83327;DHT22;73250;55.594;13.020;2024-01-25T09:35:52;21.70;40.70
83327;DHT22;73250;55.594;13.020;2024-01-25T09:38:18;21.70;40.50
83327;DHT22;73250;55.594;13.020;2024-01-25T09:40:45;21.70;40.60
83327;DHT22;73250;55.594;13.020;2024-01-25T09:43:12;21.70;40.50
83327;DHT22;73250;55.594;13.020;2024-01-25T09:45:39;21.70;40.40
83327;DHT22;73250;55.594;13.020;2024-01-25T09:48:07;21.70;40.50
83327;DHT22;73250;55.594;13.020;2024-01-25T09:50:36;21.70;40.50
83327;DHT22;73250;55.594;13.020;2024-01-25T09:53:03;21.70;40.40
83327;DHT22;73250;55.594;13.020;2024-01-25T09:55:32;21.80;40.50
83327;DHT22;73250;55.594;13.020;2024-01-25T09:58:00;21.80;40.40
83327;DHT22;73250;55.594;13.020;2024-01-25T10:00:28;21.80;40.50
83327;DHT22;73250;55.594;13.020;2024-01-25T10:02:56;21.80;40.60
83327;DHT22;73250;55.594;13.020;2024-01-25T10:05:23;21.80;40.40
83327;DHT22;73250;55.594;13.020;2024-01-25T10:07:51;21.80;40.50
83327;DHT22;73250;55.594;13.020;2024-01-25T10:10:17;21.80;40.50
83327;DHT22;73250;55.594;13.020;2024-01-25T10:12:45;21.80;40.50
83327;DHT22;73250;55.594;13.020;2024-01-25T10:15:12;21.80;40.70
83327;DHT22;73250;55.594;13.020;2024-01-25T10:17:39;21.80;40.80
83327;DHT22;73250;55.594;13.020;2024-01-25T10:20:06;21.80;40.60
83327;DHT22;73250;55.594;13.020;2024-01-25T10:22:37;21.80;40.60
83327;DHT22;73250;55.594;13.020;2024-01-25T10:25:08;21.80;40.40
83327;DHT22;73250;55.594;13.020;2024-01-25T10:27:38;21.90;40.20
83327;DHT22;73250;55.594;13.020;2024-01-25T10:30:06;21.80;40.00
83327;DHT22;73250;55.594;13.020;2024-01-25T10:32:33;21.90;40.00
83327;DHT22;73250;55.594;13.020;2024-01-25T10:35:01;21.90;39.90
83327;DHT22;73250;55.594;13.020;2024-01-25T10:37:28;21.90;39.80
83327;DHT22;73250;55.594;13.020;2024-01-25T10:39:57;21.90;39.70
83327;DHT22;73250;55.594;13.020;2024-01-25T10:42:26;21.90;39.60
83327;DHT22;73250;55.594;13.020;2024-01-25T10:44:52;21.90;39.50
83327;DHT22;73250;55.594;13.020;2024-01-25T10:47:19;21.90;39.40
83327;DHT22;73250;55.594;13.020;2024-01-25T10:49:47;21.90;39.30
83327;DHT22;73250;55.594;13.020;2024-01-25T10:52:15;21.90;39.20
83327;DHT22;73250;55.594;13.020;2024-01-25T10:54:42;21.90;39.30
83327;DHT22;73250;55.594;13.020;2024-01-25T10:57:09;21.90;39.30
83327;DHT22;73250;55.594;13.020;2024-01-25T10:59:37;21.90;39.20
83327;DHT22;73250;55.594;13.020;2024-01-25T11:02:03;21.90;39.20
83327;DHT22;73250;55.594;13.020;2024-01-25T11:04:31;21.90;39.10
83327;DHT22;73250;55.594;13.020;2024-01-25T11:07:06;21.90;39.20
83327;DHT22;73250;55.594;13.020;2024-01-25T11:09:33;21.90;39.20
83327;DHT22;73250;55.594;13.020;2024-01-25T11:12:01;21.90;39.30
83327;DHT22;73250;55.594;13.020;2024-01-25T11:14:31;21.90;39.30
83327;DHT22;73250;55.594;13.020;2024-01-25T11:17:14;21.90;39.20
83327;DHT22;73250;55.594;13.020;2024-01-25T11:19:44;21.90;39.40
83327;DHT22;73250;55.594;13.020;2024-01-25T11:22:11;21.90;39.40
83327;DHT22;73250;55.594;13.020;2024-01-25T11:24:38;21.90;39.50
83327;DHT22;73250;55.594;13.020;2024-01-25T11:27:05;21.90;39.30
83327;DHT22;73250;55.594;13.020;2024-01-25T11:29:33;21.90;39.40
83327;DHT22;73250;55.594;13.020;2024-01-25T11:32:03;21.90;39.40
83327;DHT22;73250;55.594;13.020;2024-01-25T11:34:30;21.90;39.40
83327;DHT22;73250;55.594;13.020;2024-01-25T11:36:57;21.90;39.30
83327;DHT22;73250;55.594;13.020;2024-01-25T11:39:24;21.90;39.40
83327;DHT22;73250;55.594;13.020;2024-01-25T11:41:51;21.90;39.40
83327;DHT22;73250;55.594;13.020;2024-01-25T11:44:18;21.90;39.30
83327;DHT22;73250;55.594;13.020;2024-01-25T11:46:45;21.90;39.20
83327;DHT22;73250;55.594;13.020;2024-01-25T11:49:13;21.90;39.40
83327;DHT22;73250;55.594;13.020;2024-01-25T11:51:42;22.00;39.50
83327;DHT22;73250;55.594;13.020;2024-01-25T11:54:08;22.00;39.50
83327;DHT22;73250;55.594;13.020;2024-01-25T11:56:38;22.00;39.40
83327;DHT22;73250;55.594;13.020;2024-01-25T11:59:06;22.00;39.30
83327;DHT22;73250;55.594;13.020;2024-01-25T12:01:32;22.00;39.50
83327;DHT22;73250;55.594;13.020;2024-01-25T12:03:59;22.00;39.50
83327;DHT22;73250;55.594;13.020;2024-01-25T12:06:28;22.00;39.50
83327;DHT22;73250;55.594;13.020;2024-01-25T12:08:55;22.00;39.50
83327;DHT22;73250;55.594;13.020;2024-01-25T12:11:21;22.00;39.50
83327;DHT22;73250;55.594;13.020;2024-01-25T12:13:49;22.00;39.50
83327;DHT22;73250;55.594;13.020;2024-01-25T12:16:16;22.00;39.60
83327;DHT22;73250;55.594;13.020;2024-01-25T12:18:43;22.00;39.40
83327;DHT22;73250;55.594;13.020;2024-01-25T12:21:10;22.00;39.50
83327;DHT22;73250;55.594;13.020;2024-01-25T12:23:39;22.00;39.60
83327;DHT22;73250;55.594;13.020;2024-01-25T12:26:08;22.10;39.80
83327;DHT22;73250;55.594;13.020;2024-01-25T12:28:35;22.10;40.10
83327;DHT22;73250;55.594;13.020;2024-01-25T12:31:02;22.10;40.00
83327;DHT22;73250;55.594;13.020;2024-01-25T12:33:29;22.10;39.90
83327;DHT22;73250;55.594;13.020;2024-01-25T12:35:56;22.10;39.80
83327;DHT22;73250;55.594;13.020;2024-01-25T12:38:23;22.10;40.00
83327;DHT22;73250;55.594;13.020;2024-01-25T12:40:52;22.10;40.00
83327;DHT22;73250;55.594;13.020;2024-01-25T12:43:19;22.10;40.00
83327;DHT22;73250;55.594;13.020;2024-01-25T12:45:47;22.20;40.40
83327;DHT22;73250;55.594;13.020;2024-01-25T12:48:14;22.20;40.30
83327;DHT22;73250;55.594;13.020;2024-01-25T12:50:41;22.20;40.00
83327;DHT22;73250;55.594;13.020;2024-01-25T12:53:10;22.20;40.00
83327;DHT22;73250;55.594;13.020;2024-01-25T12:55:37;22.20;40.10
83327;DHT22;73250;55.594;13.020;2024-01-25T12:58:05;22.20;40.10
83327;DHT22;73250;55.594;13.020;2024-01-25T13:00:32;22.20;40.10
83327;DHT22;73250;55.594;13.020;2024-01-25T13:02:59;22.20;40.10
83327;DHT22;73250;55.594;13.020;2024-01-25T13:05:27;22.20;40.00
83327;DHT22;73250;55.594;13.020;2024-01-25T13:07:54;22.20;39.90
83327;DHT22;73250;55.594;13.020;2024-01-25T13:10:20;22.20;40.00
83327;DHT22;73250;55.594;13.020;2024-01-25T13:12:47;22.20;40.10
83327;DHT22;73250;55.594;13.020;2024-01-25T13:15:15;22.20;39.90
83327;DHT22;73250;55.594;13.020;2024-01-25T13:17:42;22.30;39.90
83327;DHT22;73250;55.594;13.020;2024-01-25T13:20:09;22.20;39.90
83327;DHT22;73250;55.594;13.020;2024-01-25T13:22:36;22.30;40.20
83327;DHT22;73250;55.594;13.020;2024-01-25T13:25:03;22.30;40.40
83327;DHT22;73250;55.594;13.020;2024-01-25T13:27:31;22.30;40.30
83327;DHT22;73250;55.594;13.020;2024-01-25T13:29:57;22.30;40.20
83327;DHT22;73250;55.594;13.020;2024-01-25T13:32:25;22.30;40.20
83327;DHT22;73250;55.594;13.020;2024-01-25T13:34:52;22.30;39.90
83327;DHT22;73250;55.594;13.020;2024-01-25T13:37:19;22.30;40.00
83327;DHT22;73250;55.594;13.020;2024-01-25T13:39:45;22.20;40.10
83327;DHT22;73250;55.594;13.020;2024-01-25T13:42:12;22.30;40.20
83327;DHT22;73250;55.594;13.020;2024-01-25T13:44:38;22.30;40.10
83327;DHT22;73250;55.594;13.020;2024-01-25T13:47:05;22.30;40.00
83327;DHT22;73250;55.594;13.020;2024-01-25T13:49:33;22.30;40.20
83327;DHT22;73250;55.594;13.020;2024-01-25T13:52:01;22.30;40.10
83327;DHT22;73250;55.594;13.020;2024-01-25T13:54:28;22.50;39.50
83327;DHT22;73250;55.594;13.020;2024-01-25T13:56:55;22.50;39.50
83327;DHT22;73250;55.594;13.020;2024-01-25T13:59:22;22.50;39.60
83327;DHT22;73250;55.594;13.020;2024-01-25T14:01:49;22.40;39.60
83327;DHT22;73250;55.594;13.020;2024-01-25T14:04:16;22.40;39.60
83327;DHT22;73250;55.594;13.020;2024-01-25T14:06:44;22.40;39.50
83327;DHT22;73250;55.594;13.020;2024-01-25T14:09:11;22.40;39.50
83327;DHT22;73250;55.594;13.020;2024-01-25T14:11:37;22.40;39.40
83327;DHT22;73250;55.594;13.020;2024-01-25T14:14:04;22.40;39.30
83327;DHT22;73250;55.594;13.020;2024-01-25T14:16:31;22.40;39.50
83327;DHT22;73250;55.594;13.020;2024-01-25T14:18:57;22.30;39.30
83327;DHT22;73250;55.594;13.020;2024-01-25T14:21:24;22.40;39.50
83327;DHT22;73250;55.594;13.020;2024-01-25T14:23:52;22.30;39.20
83327;DHT22;73250;55.594;13.020;2024-01-25T14:26:19;22.40;39.20
83327;DHT22;73250;55.594;13.020;2024-01-25T14:28:47;22.40;39.10
83327;DHT22;73250;55.594;13.020;2024-01-25T14:31:14;22.30;39.00
83327;DHT22;73250;55.594;13.020;2024-01-25T14:33:41;22.40;39.00
83327;DHT22;73250;55.594;13.020;2024-01-25T14:36:07;22.30;38.90
83327;DHT22;73250;55.594;13.020;2024-01-25T14:38:34;22.40;39.00
83327;DHT22;73250;55.594;13.020;2024-01-25T14:41:02;22.40;39.20
83327;DHT22;73250;55.594;13.020;2024-01-25T14:43:29;22.40;39.40
83327;DHT22;73250;55.594;13.020;2024-01-25T14:45:55;22.40;39.50
83327;DHT22;73250;55.594;13.020;2024-01-25T14:48:22;22.40;39.60
83327;DHT22;73250;55.594;13.020;2024-01-25T14:50:48;22.30;39.30
83327;DHT22;73250;55.594;13.020;2024-01-25T14:53:15;22.30;39.50
83327;DHT22;73250;55.594;13.020;2024-01-25T14:55:43;22.30;39.40
83327;DHT22;73250;55.594;13.020;2024-01-25T14:58:11;22.40;39.60
83327;DHT22;73250;55.594;13.020;2024-01-25T15:00:40;22.40;39.50
83327;DHT22;73250;55.594;13.020;2024-01-25T15:03:06;22.40;40.00
83327;DHT22;73250;55.594;13.020;2024-01-25T15:05:33;22.40;39.30
83327;DHT22;73250;55.594;13.020;2024-01-25T15:08:01;22.40;39.20
83327;DHT22;73250;55.594;13.020;2024-01-25T15:10:30;22.40;39.30
83327;DHT22;73250;55.594;13.020;2024-01-25T15:12:57;22.40;39.50
83327;DHT22;73250;55.594;13.020;2024-01-25T15:15:26;22.40;39.60